Flight Track Log - Related Links

Times and Time Zones

All times are in EDT time to prevent confusion due to time zone crossing. See the N942CE flight status page for this flight to view local times or setup timezone preferences in your user account.

Time Position Orientation Groundspeed Altitude Reporting Facility
EDT Latitude Longitude Course Direction KTS MPH feet Rate Location/Type
Thu 04:19:15 PM 32.7439 -80.1264 324° Northwest 156 180 4,200  Level Jacksonville Center
Thu 04:20:15 PM 32.7758 -80.1550 323° Northwest 164 189 5,900 1,700 Climbing Jacksonville Center
Thu 04:21:15 PM 32.8097 -80.1836 325° Northwest 164 189 7,600 1,700 Climbing Jacksonville Center
Thu 04:22:00 PM 32.9344 -80.2177 320° Northwest  Level FlightAware Approximate
Thu 04:22:15 PM 32.8478 -80.2072 332° Northwest 157 181 9,300  Level Jacksonville Center
Thu 04:23:00 PM 32.9809 -80.2642 320° Northwest  Level FlightAware Approximate
Thu 04:23:15 PM 32.8939 -80.2083 359° North 151 174 10,800  Level Jacksonville Center
Thu 04:24:00 PM 33.0280 -80.3099 324° Northwest  Level FlightAware Approximate
Thu 04:24:15 PM 32.9500 -80.2092 359° North 189 217 11,100  Level Jacksonville Center
Thu 04:25:15 PM 32.9981 -80.2103 359° North 197 227 13,200 1,750 Climbing Jacksonville Center
Thu 04:26:15 PM 33.0464 -80.2211 349° North 183 211 14,600 1,500 Climbing Jacksonville Center
Thu 04:27:15 PM 33.0925 -80.2297 351° North 171 197 16,200 1,500 Climbing Jacksonville Center
Thu 04:28:15 PM 33.1428 -80.2381 352° North 171 197 17,600 1,350 Climbing Jacksonville Center
Thu 04:29:15 PM 33.1911 -80.2492 349° North 171 197 18,900 1,250 Climbing Jacksonville Center
Thu 04:30:15 PM 33.2392 -80.2600 349° North 171 197 20,100 1,250 Climbing Jacksonville Center
Thu 04:31:15 PM 33.2875 -80.2711 349° North 171 197 21,400 1,300 Climbing Jacksonville Center
Thu 04:32:15 PM 33.3358 -80.2822 349° North 171 197 22,700 1,100 Climbing Jacksonville Center
Thu 04:33:15 PM 33.3839 -80.2931 349° North 171 197 23,600 650 Climbing Jacksonville Center
Thu 04:34:15 PM 33.4364 -80.3039 350° North 182 209 24,000 200 Climbing Jacksonville Center
Thu 04:35:15 PM 33.5011 -80.3147 352° North 206 237 24,000 200 Level Jacksonville Center
Thu 04:36:15 PM 33.5664 -80.3328 347° North 222 255 24,400 500 Climbing Jacksonville Center
Thu 04:37:15 PM 33.6250 -80.3458 349° North 222 255 25,000 300 Climbing Jacksonville Center
Thu 04:38:15 PM 33.6900 -80.3589 351° North 222 255 25,000  Level Jacksonville Center
Thu 04:39:15 PM 33.7508 -80.3722 350° North 222 255 25,000  Level Jacksonville Center
Thu 04:40:15 PM 33.8178 -80.3853 351° North 222 255 25,000  Level Jacksonville Center
Thu 04:41:15 PM 33.8828 -80.3986 350° North 227 261 25,000  Level Jacksonville Center
Thu 04:42:15 PM 33.9456 -80.4092 352° North 227 261 25,000  Level Jacksonville Center
Thu 04:43:15 PM 34.0083 -80.4250 348° North 227 261 25,000  Level Jacksonville Center
Thu 04:44:15 PM 34.0733 -80.4406 349° North 227 261 25,000  Level Jacksonville Center
Thu 04:45:15 PM 34.1342 -80.4539 350° North 222 255 25,000  Level Jacksonville Center
Thu 04:46:15 PM 34.1969 -80.4647 352° North 222 255 25,000  Level Jacksonville Center
Thu 04:47:15 PM 34.2578 -80.4783 350° North 222 255 25,000  Level Jacksonville Center
Thu 04:48:15 PM 34.3206 -80.4917 350° North 222 255 25,000  Level Jacksonville Center
Thu 04:50:22 PM 34.4514 -80.5247 348° North 217 250 25,000  Level Atlanta Center
Thu 04:51:22 PM 34.5144 -80.5372 351° North 223 257 25,000  Level Atlanta Center
Thu 04:52:22 PM 34.5733 -80.5500 350° North 223 257 25,000  Level Atlanta Center
Thu 04:53:22 PM 34.6342 -80.5600 352° North 223 257 25,000  Level Atlanta Center
Thu 04:54:22 PM 34.6931 -80.5778 346° North 218 251 25,000  Level Atlanta Center
Thu 04:55:22 PM 34.7433 -80.5883 350° North 218 251 25,000  Level Atlanta Center
Thu 04:56:22 PM 34.8061 -80.5983 353° North 218 251 25,000  Level Atlanta Center
Thu 04:57:22 PM 34.8650 -80.6111 350° North 218 251 25,000  Level Atlanta Center
Thu 04:58:22 PM 34.9217 -80.6267 347° North 218 251 25,000 500 Level Atlanta Center
Thu 04:59:22 PM 34.9806 -80.6369 352° North 218 251 26,000 500 Climbing Atlanta Center
Thu 05:00:22 PM 35.0392 -80.6497 350° North 218 251 26,000  Level Atlanta Center
Thu 05:01:22 PM 35.1003 -80.6622 350° North 218 251 26,000  Level Atlanta Center
Thu 05:02:22 PM 35.1672 -80.6775 349° North 218 251 26,000  Level Atlanta Center
Thu 05:03:22 PM 35.2281 -80.6878 352° North 218 251 26,000  Level Atlanta Center
Thu 05:04:22 PM 35.2869 -80.7031 348° North 218 251 26,000  Level Atlanta Center
Thu 05:05:22 PM 35.3458 -80.7186 348° North 218 251 26,000  Level Atlanta Center
Thu 05:06:22 PM 35.4044 -80.7289 352° North 218 251 26,000  Level Atlanta Center
Thu 05:07:22 PM 35.4656 -80.7444 348° North 218 251 26,000  Level Atlanta Center
Thu 05:08:22 PM 35.5219 -80.7547 352° North 218 251 26,000  Level Atlanta Center
Thu 05:09:22 PM 35.5808 -80.7678 350° North 218 251 26,000  Level Atlanta Center
Thu 05:10:22 PM 35.6375 -80.7808 349° North 213 245 26,000  Level Atlanta Center
Thu 05:11:22 PM 35.6961 -80.7914 352° North 213 245 26,000  Level Atlanta Center
Thu 05:12:22 PM 35.7550 -80.8069 348° North 213 245 26,000  Level Atlanta Center
Thu 05:13:22 PM 35.8136 -80.8200 350° North 213 245 26,000 400 Level Atlanta Center
Thu 05:14:22 PM 35.8703 -80.8331 349° North 213 245 26,800 500 Climbing Atlanta Center
Thu 05:15:22 PM 35.9208 -80.8439 350° North 206 237 27,000 100 Climbing Atlanta Center
Thu 05:16:22 PM 35.9817 -80.8569 350° North 206 237 27,000  Level Atlanta Center
Thu 05:17:22 PM 36.0403 -80.8700 350° North 216 249 27,000  Level Atlanta Center
Thu 05:18:22 PM 36.1033 -80.8856 349° North 221 254 27,000  Level Atlanta Center
Thu 05:19:22 PM 36.1642 -80.8986 350° North 221 254 27,000  Level Atlanta Center
Thu 05:20:22 PM 36.2250 -80.9117 350° North 221 254 27,000  Level Atlanta Center
Thu 05:21:22 PM 36.2836 -80.9247 350° North 221 254 27,000  Level Atlanta Center
Thu 05:22:22 PM 36.3486 -80.9403 349° North 221 254 27,000  Level Atlanta Center
Thu 05:23:22 PM 36.4094 -80.9533 350° North 221 254 27,000  Level Atlanta Center
Thu 05:24:22 PM 36.4683 -80.9667 350° North 221 254 27,000  Level Atlanta Center
Thu 05:25:22 PM 36.5292 -80.9797 350° North 221 254 27,000  Level Atlanta Center
Thu 05:26:22 PM 36.5878 -80.9931 350° North 221 254 27,000  Level Atlanta Center
Thu 05:27:22 PM 36.6464 -81.0064 350° North 221 254 27,000  Level Atlanta Center
Thu 05:29:20 PM 36.7592 -81.0353 348° North 219 252 27,000  Level Indianapolis Center
Thu 05:30:22 PM 36.8178 -81.0469 351° North 219 252 27,000  Level Indianapolis Center
Thu 05:31:24 PM 36.8869 -81.0639 349° North 217 250 27,000  Level Indianapolis Center
Thu 05:32:26 PM 36.9453 -81.0772 350° North 218 251 27,000  Level Indianapolis Center
Thu 05:33:28 PM 37.0056 -81.0900 350° North 224 258 27,000  Level Indianapolis Center
Thu 05:34:30 PM 37.0742 -81.1067 349° North 217 250 27,000  Level Indianapolis Center
Thu 05:35:32 PM 37.1339 -81.1206 349° North 219 252 27,000  Level Indianapolis Center
Thu 05:36:35 PM 37.1928 -81.1347 349° North 220 253 27,000  Level Indianapolis Center
Thu 05:37:37 PM 37.2631 -81.1506 350° North 220 253 27,000  Level Indianapolis Center
Thu 05:38:39 PM 37.3231 -81.1642 350° North 224 258 27,000  Level Indianapolis Center
Thu 05:39:41 PM 37.3808 -81.1783 349° North 218 251 27,000  Level Indianapolis Center
Thu 05:40:43 PM 37.4386 -81.1917 350° North 216 249 27,000  Level Indianapolis Center
Thu 05:41:45 PM 37.5083 -81.2075 350° North 217 250 27,000  Level Indianapolis Center
Thu 05:42:47 PM 37.5661 -81.2206 350° North 218 251 27,000  Level Indianapolis Center
Thu 05:43:49 PM 37.6244 -81.2353 349° North 219 252 27,000  Level Indianapolis Center
Thu 05:44:51 PM 37.6939 -81.2517 349° North 217 250 27,000  Level Indianapolis Center
Thu 05:45:53 PM 37.7528 -81.2647 350° North 220 253 27,000  Level Indianapolis Center
Thu 05:46:55 PM 37.8106 -81.2786 349° North 217 250 27,000  Level Indianapolis Center
Thu 05:47:57 PM 37.8786 -81.2950 349° North 215 247 27,000  Level Indianapolis Center
Thu 05:48:59 PM 37.9375 -81.3083 350° North 215 247 27,000  Level Indianapolis Center
Thu 05:50:01 PM 37.9961 -81.3225 349° North 215 247 27,000  Level Indianapolis Center
Thu 05:51:03 PM 38.0558 -81.3367 349° North 216 249 27,000  Level Indianapolis Center
Thu 05:52:05 PM 38.1139 -81.3522 348° North 214 246 27,000  Level Indianapolis Center
Thu 05:53:07 PM 38.1739 -81.3650 350° North 216 249 27,000  Level Indianapolis Center
Thu 05:54:09 PM 38.2453 -81.3814 350° North 219 252 27,000 -48 Level Indianapolis Center
Thu 05:55:11 PM 38.3056 -81.3967 349° North 217 250 26,900  Descending Indianapolis Center
Thu 05:56:13 PM 38.3644 -81.4108 349° North 217 250 27,000  Climbing Indianapolis Center
Thu 05:57:15 PM 38.4242 -81.4253 349° North 218 251 26,900 -48 Descending Indianapolis Center
Thu 05:58:18 PM 38.4836 -81.4392 350° North 216 249 26,900 48 Level Indianapolis Center
Thu 05:59:20 PM 38.5422 -81.4528 350° North 215 247 27,000 48 Climbing Indianapolis Center
Thu 06:00:22 PM 38.6122 -81.4700 349° North 215 247 27,000  Level Indianapolis Center
Thu 06:01:24 PM 38.6703 -81.4844 349° North 215 247 27,000  Level Indianapolis Center
Thu 06:02:26 PM 38.7292 -81.4983 350° North 215 247 27,000  Level Indianapolis Center
Thu 06:03:28 PM 38.7853 -81.5119 349° North 217 250 27,000  Level Indianapolis Center
Thu 06:04:30 PM 38.8564 -81.5289 349° North 217 250 27,000 -48 Level Indianapolis Center
Thu 06:05:32 PM 38.9150 -81.5428 350° North 214 246 26,900 -48 Descending Indianapolis Center
Thu 06:06:34 PM 38.9736 -81.5575 349° North 214 246 26,900  Level Indianapolis Center
Thu 06:07:36 PM 39.0317 -81.5722 349° North 213 245 26,900  Level Indianapolis Center
Thu 06:08:38 PM 39.0914 -81.5867 349° North 216 249 26,900 48 Level Indianapolis Center
Thu 06:09:40 PM 39.1503 -81.6011 349° North 217 250 27,000 48 Climbing Indianapolis Center
Thu 06:10:42 PM 39.2206 -81.6183 349° North 213 245 27,000  Level Indianapolis Center
Thu 06:11:44 PM 39.2803 -81.6328 349° North 217 250 27,000  Level Indianapolis Center
Thu 06:12:46 PM 39.3394 -81.6478 349° North 218 251 27,000  Level Indianapolis Center
Thu 06:13:48 PM 39.3992 -81.6614 350° North 219 252 27,000  Level Indianapolis Center
Thu 06:14:50 PM 39.4583 -81.6767 349° North 217 250 27,000  Level Indianapolis Center
Thu 06:15:52 PM 39.5192 -81.6914 349° North 220 253 27,000  Level Indianapolis Center
Thu 06:16:54 PM 39.5789 -81.7067 349° North 219 252 27,000  Level Indianapolis Center
Thu 06:17:57 PM 39.6508 -81.7253 349° North 220 253 27,000  Level Indianapolis Center
Thu 06:18:59 PM 39.7069 -81.7389 349° North 221 254 27,000  Level Indianapolis Center
Thu 06:20:01 PM 39.7678 -81.7531 350° North 221 254 27,000  Level Indianapolis Center
Thu 06:21:03 PM 39.8381 -81.7708 349° North 218 251 27,000  Level Indianapolis Center
Thu 06:22:05 PM 39.8989 -81.7872 348° North 220 253 27,000  Level Indianapolis Center
Thu 06:23:07 PM 39.9586 -81.8025 349° North 218 251 27,000  Level Indianapolis Center
Thu 06:24:09 PM 40.0206 -81.8169 350° North 223 257 27,000  Level Indianapolis Center
Thu 06:25:11 PM 40.0811 -81.8336 348° North 220 253 27,000  Level Indianapolis Center
Thu 06:26:13 PM 40.1428 -81.8475 350° North 222 255 27,000  Level Indianapolis Center
Thu 06:27:15 PM 40.2156 -81.8664 349° North 225 259 27,000  Level Indianapolis Center
Thu 06:28:17 PM 40.2758 -81.8811 349° North 225 259 27,000  Level Indianapolis Center
Thu 06:29:19 PM 40.3378 -81.8978 348° North 224 258 27,000  Level Indianapolis Center
Thu 06:30:10 PM 40.3908 -81.9106 350° North 223 257 27,000  Level Cleveland Center
Thu 06:31:10 PM 40.4533 -81.9256 350° North 223 257 27,000  Level Cleveland Center
Thu 06:32:10 PM 40.5133 -81.9431 347° North 223 257 27,000  Level Cleveland Center
Thu 06:33:10 PM 40.5778 -81.9636 346° North 223 257 27,000  Level Cleveland Center
Thu 06:34:10 PM 40.6339 -81.9922 339° North 223 257 27,000  Level Cleveland Center
Thu 06:35:10 PM 40.6917 -82.0233 338° Northwest 223 257 27,000  Level Cleveland Center
Thu 06:36:10 PM 40.7497 -82.0522 339° North 223 257 27,000 -250 Level Cleveland Center
Thu 06:37:10 PM 40.8097 -82.0808 340° North 223 257 26,500 -850 Descending Cleveland Center
Thu 06:38:10 PM 40.8658 -82.1097 339° North 234 269 25,300 -1,250 Descending Cleveland Center
Thu 06:39:10 PM 40.9300 -82.1442 338° Northwest 241 277 24,000 -1,350 Descending Cleveland Center
Thu 06:40:10 PM 40.9961 -82.1789 338° Northwest 252 290 22,600 -1,008 Descending Cleveland Center
Thu 06:41:09 PM 41.0625 -82.2133 339° North 252 290 22,000 -300 Descending Cleveland Center
Thu 06:42:10 PM 41.1244 -82.2481 337° Northwest 246 283 22,000  Level Cleveland Center
Thu 06:43:10 PM 41.1928 -82.2828 339° North 241 277 22,000 -650 Level Cleveland Center
Thu 06:44:10 PM 41.2569 -82.3150 339° North 241 277 20,700 -1,500 Descending Cleveland Center
Thu 06:45:10 PM 41.3250 -82.3500 339° North 258 297 19,000 -1,750 Descending Cleveland Center
Thu 06:46:10 PM 41.3953 -82.3878 338° Northwest 268 308 17,200 -1,750 Descending Cleveland Center
Thu 06:47:10 PM 41.4697 -82.4258 339° North 273 314 15,500 -1,750 Descending Cleveland Center
Thu 06:48:10 PM 41.5400 -82.4642 338° Northwest 278 320 13,700 -1,850 Descending Cleveland Center
Thu 06:49:10 PM 41.6103 -82.4994 339° North 273 314 11,800 -1,800 Descending Cleveland Center
Thu 06:50:10 PM 41.6786 -82.5375 337° Northwest 273 314 10,100 -1,350 Descending Cleveland Center
Thu 06:51:10 PM 41.7425 -82.5703 339° North 268 308 9,100 -555 Descending Cleveland Center
Thu 06:52:09 PM 41.8025 -82.6053 337° Northwest 258 297 9,000 -50 Descending Cleveland Center
Thu 06:53:09 PM 41.8625 -82.6297 343° North 236 272 9,000 -512 Level Cleveland Center
Thu 06:54:18 PM 41.9394 -82.6378 356° North 239 275 7,900 -1,041 Descending Cleveland Center
Thu 06:55:10 PM 41.9933 -82.6478 352° North 228 262 6,900 -1,189 Descending Cleveland Center
Thu 06:56:09 PM 42.0575 -82.6806 339° North 233 268 5,700 -1,263 Descending Cleveland Center
Thu 06:56:26 PM 42.0739 -82.6922 332° Northwest 240 276 5,300 -689 Descending Cleveland Center
Thu 06:57:10 PM 42.1172 -82.7133 340° North 238 274 5,000 -295 Descending Cleveland Center
Thu 06:57:27 PM 42.1381 -82.7225 342° North 225 259 5,000  Level Cleveland Center
Thu 06:58:10 PM 42.1708 -82.7461 332° Northwest 226 260 5,000 -583 Level Cleveland Center
Thu 06:59:10 PM 42.2244 -82.7872 330° Northwest 213 245 4,000 -504 Descending Cleveland Center
Thu 07:00:09 PM 42.2758 -82.8225 333° Northwest 213 245 4,000  Level Cleveland Center
Thu 07:01:18 PM 42.3333 -82.8639 332° Northwest 195 224 4,000  Level Cleveland Center
Thu 07:02:19 PM 42.3847 -82.8967 335° Northwest 198 228 4,000  Level Cleveland Center
Thu 07:03:20 PM 42.4342 -82.9322 332° Northwest 204 235 4,000  Level Cleveland Center
Thu 07:04:21 PM 42.4814 -82.9706 329° Northwest 204 235 4,000  Level Cleveland Center
Thu 07:05:16 PM 42.5114 -83.0308 304° West 201 231 4,000  Level Cleveland Center
Thu 07:06:23 PM 42.5494 -83.1000 307° West 206 237 4,000  Level Cleveland Center
Thu 07:07:23 PM 42.5856 -83.1664 306° West 208 239 4,000 -209 Level Cleveland Center
Thu 07:08:18 PM 42.6133 -83.2211 305° West 211 243 3,600 -639 Descending Cleveland Center
Thu 07:09:25 PM 42.6514 -83.2906 307° West 197 227 2,700 -656 Descending Cleveland Center
Thu 07:10:26 PM 42.6667 -83.3447 291° West 139 160 2,200 -492 Descending Cleveland Center

Login

Don't have an account? Register now (free) for customized features, flight alerts, and more!